sensor_id;sensor_type;location;lat;lon;timestamp;pressure;altitude;pressure_sealevel;temperature;humidity
13709;BME280;54933;51.908;7.730;2023-08-17T00:01:00;101274.38;;;24.11;89.94
13709;BME280;54933;51.908;7.730;2023-08-17T00:03:26;101281.72;;;24.11;89.81
13709;BME280;54933;51.908;7.730;2023-08-17T00:05:51;101260.78;;;24.11;89.82
13709;BME280;54933;51.908;7.730;2023-08-17T00:08:16;101267.06;;;24.12;89.89
13709;BME280;54933;51.908;7.730;2023-08-17T00:10:42;101266.00;;;24.13;89.81
13709;BME280;54933;51.908;7.730;2023-08-17T00:13:07;101269.56;;;24.13;89.72
13709;BME280;54933;51.908;7.730;2023-08-17T00:15:33;101280.41;;;24.13;89.93
13709;BME280;54933;51.908;7.730;2023-08-17T00:17:58;101285.00;;;24.13;89.91
13709;BME280;54933;51.908;7.730;2023-08-17T00:20:23;101291.28;;;24.13;90.00
13709;BME280;54933;51.908;7.730;2023-08-17T00:22:49;101297.56;;;24.14;89.96
13709;BME280;54933;51.908;7.730;2023-08-17T00:25:14;101296.72;;;24.13;89.88
13709;BME280;54933;51.908;7.730;2023-08-17T00:27:39;101302.97;;;24.14;90.07
13709;BME280;54933;51.908;7.730;2023-08-17T00:30:05;101291.28;;;24.13;89.88
13709;BME280;54933;51.908;7.730;2023-08-17T00:32:30;101292.13;;;24.14;89.91
13709;BME280;54933;51.908;7.730;2023-08-17T00:34:56;101289.41;;;24.14;89.90
13709;BME280;54933;51.908;7.730;2023-08-17T00:37:21;101291.28;;;24.13;90.02
13709;BME280;54933;51.908;7.730;2023-08-17T00:39:46;101290.44;;;24.13;89.89
13709;BME280;54933;51.908;7.730;2023-08-17T00:42:11;101309.25;;;24.15;89.88
13709;BME280;54933;51.908;7.730;2023-08-17T00:44:37;101298.38;;;24.15;89.89
13709;BME280;54933;51.908;7.730;2023-08-17T00:47:02;101299.44;;;24.13;89.92
13709;BME280;54933;51.908;7.730;2023-08-17T00:49:28;101298.38;;;24.15;90.06
13709;BME280;54933;51.908;7.730;2023-08-17T00:51:53;101298.38;;;24.15;90.20
13709;BME280;54933;51.908;7.730;2023-08-17T00:54:23;101295.69;;;24.15;89.94
13709;BME280;54933;51.908;7.730;2023-08-17T00:56:49;101300.03;;;24.16;90.00
13709;BME280;54933;51.908;7.730;2023-08-17T00:59:15;101298.38;;;24.15;90.04
13709;BME280;54933;51.908;7.730;2023-08-17T01:01:40;101297.31;;;24.16;89.89
13709;BME280;54933;51.908;7.730;2023-08-17T01:04:05;101302.75;;;24.16;90.05
13709;BME280;54933;51.908;7.730;2023-08-17T01:06:31;101310.91;;;24.16;89.92
13709;BME280;54933;51.908;7.730;2023-08-17T01:08:56;101312.56;;;24.17;89.84
13709;BME280;54933;51.908;7.730;2023-08-17T01:11:30;101320.69;;;24.17;89.75
13709;BME280;54933;51.908;7.730;2023-08-17T01:14:04;101334.28;;;24.17;89.54
13709;BME280;54933;51.908;7.730;2023-08-17T01:16:38;101336.75;;;24.18;89.41
13709;BME280;54933;51.908;7.730;2023-08-17T01:19:07;101327.19;;;24.16;89.46
13709;BME280;54933;51.908;7.730;2023-08-17T01:22:26;101319.03;;;24.16;89.27
13709;BME280;54933;51.908;7.730;2023-08-17T01:24:44;101327.19;;;24.16;89.19
13709;BME280;54933;51.908;7.730;2023-08-17T01:27:10;101326.13;;;24.17;89.13
13709;BME280;54933;51.908;7.730;2023-08-17T01:29:35;101331.56;;;24.17;88.72
13709;BME280;54933;51.908;7.730;2023-08-17T01:32:12;101334.28;;;24.17;88.95
13709;BME280;54933;51.908;7.730;2023-08-17T01:34:57;101325.31;;;24.16;88.90
13709;BME280;54933;51.908;7.730;2023-08-17T01:37:28;101319.03;;;24.16;88.87
13709;BME280;54933;51.908;7.730;2023-08-17T01:39:55;101316.34;;;24.16;88.80
13709;BME280;54933;51.908;7.730;2023-08-17T01:42:22;101312.56;;;24.17;88.70
13709;BME280;54933;51.908;7.730;2023-08-17T01:44:47;101311.75;;;24.16;88.77
13709;BME280;54933;51.908;7.730;2023-08-17T01:47:12;101319.03;;;24.16;88.79
13709;BME280;54933;51.908;7.730;2023-08-17T01:49:38;101327.19;;;24.16;88.77
13709;BME280;54933;51.908;7.730;2023-08-17T01:52:03;101322.59;;;24.16;88.74
13709;BME280;54933;51.908;7.730;2023-08-17T01:54:29;101317.97;;;24.17;88.57
13709;BME280;54933;51.908;7.730;2023-08-17T01:56:54;101321.75;;;24.16;88.69
13709;BME280;54933;51.908;7.730;2023-08-17T01:59:19;101316.34;;;24.16;88.72
13709;BME280;54933;51.908;7.730;2023-08-17T02:01:44;101304.63;;;24.15;88.65
13709;BME280;54933;51.908;7.730;2023-08-17T02:04:10;101302.16;;;24.13;88.14
13709;BME280;54933;51.908;7.730;2023-08-17T02:06:35;101300.28;;;24.14;88.52
13709;BME280;54933;51.908;7.730;2023-08-17T02:09:00;101298.38;;;24.15;88.52
13709;BME280;54933;51.908;7.730;2023-08-17T02:11:26;101296.47;;;24.15;88.58
13709;BME280;54933;51.908;7.730;2023-08-17T02:13:52;101304.63;;;24.15;88.94
13709;BME280;54933;51.908;7.730;2023-08-17T02:16:17;101308.41;;;24.14;88.60
13709;BME280;54933;51.908;7.730;2023-08-17T02:18:42;101303.81;;;24.15;88.57
13709;BME280;54933;51.908;7.730;2023-08-17T02:21:08;101298.38;;;24.15;88.55
13709;BME280;54933;51.908;7.730;2023-08-17T02:23:34;101279.38;;;24.15;88.20
13709;BME280;54933;51.908;7.730;2023-08-17T02:25:59;101273.94;;;24.15;88.63
13709;BME280;54933;51.908;7.730;2023-08-17T02:28:25;101270.41;;;24.14;88.44
13709;BME280;54933;51.908;7.730;2023-08-17T02:30:55;101264.75;;;24.16;88.59
13709;BME280;54933;51.908;7.730;2023-08-17T02:33:21;101258.69;;;24.13;88.63
13709;BME280;54933;51.908;7.730;2023-08-17T02:35:50;101257.66;;;24.15;88.82
13709;BME280;54933;51.908;7.730;2023-08-17T02:38:16;101260.38;;;24.15;88.72
13709;BME280;54933;51.908;7.730;2023-08-17T02:40:42;101249.50;;;24.15;88.90
13709;BME280;54933;51.908;7.730;2023-08-17T02:43:07;101252.22;;;24.15;88.89
13709;BME280;54933;51.908;7.730;2023-08-17T02:45:33;101254.94;;;24.15;88.76
13709;BME280;54933;51.908;7.730;2023-08-17T02:47:59;101258.69;;;24.13;88.75
13709;BME280;54933;51.908;7.730;2023-08-17T02:50:24;101266.63;;;24.15;88.81
13709;BME280;54933;51.908;7.730;2023-08-17T02:52:49;101273.94;;;24.15;88.78
13709;BME280;54933;51.908;7.730;2023-08-17T02:55:14;101271.25;;;24.15;88.83
13709;BME280;54933;51.908;7.730;2023-08-17T02:57:40;101283.75;;;24.16;88.60
13709;BME280;54933;51.908;7.730;2023-08-17T03:00:05;101287.53;;;24.15;88.73
13709;BME280;54933;51.908;7.730;2023-08-17T03:02:31;101287.53;;;24.15;88.99
13709;BME280;54933;51.908;7.730;2023-08-17T03:04:56;101284.81;;;24.15;88.81
13709;BME280;54933;51.908;7.730;2023-08-17T03:07:21;101287.53;;;24.15;89.10
13709;BME280;54933;51.908;7.730;2023-08-17T03:09:47;101293.78;;;24.15;88.73
13709;BME280;54933;51.908;7.730;2023-08-17T03:12:12;101298.38;;;24.15;88.88
13709;BME280;54933;51.908;7.730;2023-08-17T03:14:37;101291.28;;;24.13;88.82
13709;BME280;54933;51.908;7.730;2023-08-17T03:17:03;101285.84;;;24.13;88.80
13709;BME280;54933;51.908;7.730;2023-08-17T03:19:28;101278.53;;;24.14;88.74
13709;BME280;54933;51.908;7.730;2023-08-17T03:21:54;101275.81;;;24.14;88.58
13709;BME280;54933;51.908;7.730;2023-08-17T03:24:19;101277.47;;;24.15;88.39
13709;BME280;54933;51.908;7.730;2023-08-17T03:26:44;101275.59;;;24.16;88.51
13709;BME280;54933;51.908;7.730;2023-08-17T03:29:09;101273.13;;;24.14;88.20
13709;BME280;54933;51.908;7.730;2023-08-17T03:31:35;101269.56;;;24.13;88.42
13709;BME280;54933;51.908;7.730;2023-08-17T03:34:00;101261.41;;;24.13;88.38
13709;BME280;54933;51.908;7.730;2023-08-17T03:36:26;101258.69;;;24.13;88.35
13709;BME280;54933;51.908;7.730;2023-08-17T03:38:51;101248.06;;;24.12;87.78
13709;BME280;54933;51.908;7.730;2023-08-17T03:41:16;101250.78;;;24.12;88.46
13709;BME280;54933;51.908;7.730;2023-08-17T03:43:42;101247.84;;;24.13;88.23
13709;BME280;54933;51.908;7.730;2023-08-17T03:46:07;101252.41;;;24.13;88.21
13709;BME280;54933;51.908;7.730;2023-08-17T03:48:32;101247.00;;;24.13;88.09
13709;BME280;54933;51.908;7.730;2023-08-17T03:50:57;101236.13;;;24.13;88.24
13709;BME280;54933;51.908;7.730;2023-08-17T03:53:23;101234.47;;;24.12;88.06
13709;BME280;54933;51.908;7.730;2023-08-17T03:55:49;101239.06;;;24.11;88.29
13709;BME280;54933;51.908;7.730;2023-08-17T03:58:15;101241.78;;;24.11;88.15
13709;BME280;54933;51.908;7.730;2023-08-17T04:00:41;101241.22;;;24.09;87.93
13709;BME280;54933;51.908;7.730;2023-08-17T04:03:07;101243.69;;;24.11;88.23
13709;BME280;54933;51.908;7.730;2023-08-17T04:05:33;101240.16;;;24.10;88.21
13709;BME280;54933;51.908;7.730;2023-08-17T04:08:01;101242.78;;;23.99;88.28
13709;BME280;54933;51.908;7.730;2023-08-17T04:10:28;101243.88;;;23.91;88.78
13709;BME280;54933;51.908;7.730;2023-08-17T04:12:53;101247.25;;;23.87;89.17
13709;BME280;54933;51.908;7.730;2023-08-17T04:15:19;101252.91;;;23.85;89.48
13709;BME280;54933;51.908;7.730;2023-08-17T04:17:44;101247.47;;;23.85;89.77
13709;BME280;54933;51.908;7.730;2023-08-17T04:20:10;101249.38;;;23.85;90.02
13709;BME280;54933;51.908;7.730;2023-08-17T04:22:35;101250.78;;;23.87;90.03
13709;BME280;54933;51.908;7.730;2023-08-17T04:25:00;101250.78;;;23.87;89.98
13709;BME280;54933;51.908;7.730;2023-08-17T04:27:26;101250.56;;;23.89;90.07
13709;BME280;54933;51.908;7.730;2023-08-17T04:29:51;101253.06;;;23.90;90.13
13709;BME280;54933;51.908;7.730;2023-08-17T04:32:16;101253.91;;;23.91;90.00
13709;BME280;54933;51.908;7.730;2023-08-17T04:34:42;101262.66;;;23.93;90.10
13709;BME280;54933;51.908;7.730;2023-08-17T04:37:08;101251.78;;;23.93;89.95
13709;BME280;54933;51.908;7.730;2023-08-17T04:39:33;101258.94;;;23.87;90.16
13709;BME280;54933;51.908;7.730;2023-08-17T04:41:58;101258.47;;;23.90;90.06
13709;BME280;54933;51.908;7.730;2023-08-17T04:44:24;101261.81;;;23.92;89.93
13709;BME280;54933;51.908;7.730;2023-08-17T04:46:49;101265.13;;;23.94;89.87
13709;BME280;54933;51.908;7.730;2023-08-17T04:49:14;101265.97;;;23.95;89.83
13709;BME280;54933;51.908;7.730;2023-08-17T04:51:39;101266.78;;;23.95;89.60
13709;BME280;54933;51.908;7.730;2023-08-17T04:54:05;101264.31;;;23.94;89.82
13709;BME280;54933;51.908;7.730;2023-08-17T04:56:30;101265.97;;;23.95;89.79
13709;BME280;54933;51.908;7.730;2023-08-17T04:58:55;101261.34;;;23.95;89.77
13709;BME280;54933;51.908;7.730;2023-08-17T05:01:21;101266.78;;;23.95;89.61
13709;BME280;54933;51.908;7.730;2023-08-17T05:03:46;101264.72;;;23.97;89.62
13709;BME280;54933;51.908;7.730;2023-08-17T05:06:11;101258.22;;;23.98;89.38
13709;BME280;54933;51.908;7.730;2023-08-17T05:08:37;101254.47;;;23.99;89.35
13709;BME280;54933;51.908;7.730;2023-08-17T05:11:02;101256.13;;;24.00;89.39
13709;BME280;54933;51.908;7.730;2023-08-17T05:13:27;101253.84;;;23.97;89.35
13709;BME280;54933;51.908;7.730;2023-08-17T05:15:52;101256.56;;;23.97;89.52
13709;BME280;54933;51.908;7.730;2023-08-17T05:18:18;101262.84;;;23.98;89.57
13709;BME280;54933;51.908;7.730;2023-08-17T05:20:43;101260.94;;;23.98;89.50
13709;BME280;54933;51.908;7.730;2023-08-17T05:23:08;101267.22;;;23.99;89.59
13709;BME280;54933;51.908;7.730;2023-08-17T05:25:33;101258.00;;;24.00;89.52
13709;BME280;54933;51.908;7.730;2023-08-17T05:27:59;101263.22;;;24.01;89.41
13709;BME280;54933;51.908;7.730;2023-08-17T05:30:24;101263.00;;;24.03;89.47
13709;BME280;54933;51.908;7.730;2023-08-17T05:32:49;101263.47;;;23.93;89.25
13709;BME280;54933;51.908;7.730;2023-08-17T05:35:14;101266.84;;;23.89;89.27
13709;BME280;54933;51.908;7.730;2023-08-17T05:37:40;101272.50;;;23.87;89.02
13709;BME280;54933;51.908;7.730;2023-08-17T05:40:05;101273.28;;;23.94;88.93
13709;BME280;54933;51.908;7.730;2023-08-17T05:42:31;101276.44;;;23.91;88.94
13709;BME280;54933;51.908;7.730;2023-08-17T05:44:56;101279.00;;;23.86;89.14
13709;BME280;54933;51.908;7.730;2023-08-17T05:47:21;101285.63;;;23.90;89.21
13709;BME280;54933;51.908;7.730;2023-08-17T05:49:47;101285.59;;;23.72;88.99
13709;BME280;54933;51.908;7.730;2023-08-17T05:52:12;101290.19;;;23.47;87.79
13709;BME280;54933;51.908;7.730;2023-08-17T05:54:38;101287.38;;;23.60;87.59
13709;BME280;54933;51.908;7.730;2023-08-17T05:57:03;101285.34;;;23.74;87.73
13709;BME280;54933;51.908;7.730;2023-08-17T05:59:28;101294.50;;;23.79;88.00
13709;BME280;54933;51.908;7.730;2023-08-17T06:01:54;101290.31;;;23.83;87.99
13709;BME280;54933;51.908;7.730;2023-08-17T06:04:19;101289.84;;;23.86;88.06
13709;BME280;54933;51.908;7.730;2023-08-17T06:06:46;101294.00;;;23.89;87.96
13709;BME280;54933;51.908;7.730;2023-08-17T06:09:11;101286.69;;;23.89;88.03
13709;BME280;54933;51.908;7.730;2023-08-17T06:11:37;101288.34;;;23.90;88.14
13709;BME280;54933;51.908;7.730;2023-08-17T06:14:02;101292.75;;;23.91;88.22
13709;BME280;54933;51.908;7.730;2023-08-17T06:16:28;101287.31;;;23.91;88.28
13709;BME280;54933;51.908;7.730;2023-08-17T06:18:53;101294.06;;;23.82;88.09
13709;BME280;54933;51.908;7.730;2023-08-17T06:21:18;101289.81;;;23.93;88.14
13709;BME280;54933;51.908;7.730;2023-08-17T06:23:43;101295.22;;;23.93;88.19
13709;BME280;54933;51.908;7.730;2023-08-17T06:26:09;101287.91;;;23.93;88.17
13709;BME280;54933;51.908;7.730;2023-08-17T06:28:34;101287.91;;;23.93;88.25
13709;BME280;54933;51.908;7.730;2023-08-17T06:30:59;101284.16;;;23.94;88.24
13709;BME280;54933;51.908;7.730;2023-08-17T06:33:24;101278.50;;;23.96;88.26
13709;BME280;54933;51.908;7.730;2023-08-17T06:35:50;101273.06;;;23.96;88.34
13709;BME280;54933;51.908;7.730;2023-08-17T06:38:16;101288.09;;;23.98;88.16
13709;BME280;54933;51.908;7.730;2023-08-17T06:40:41;101285.38;;;23.98;88.36
13709;BME280;54933;51.908;7.730;2023-08-17T06:43:06;101280.78;;;23.99;88.28
13709;BME280;54933;51.908;7.730;2023-08-17T06:45:32;101279.72;;;24.00;88.39
13709;BME280;54933;51.908;7.730;2023-08-17T06:47:57;101287.06;;;23.99;88.34
13709;BME280;54933;51.908;7.730;2023-08-17T06:50:23;101287.66;;;24.01;88.30
13709;BME280;54933;51.908;7.730;2023-08-17T06:52:48;101287.66;;;24.01;88.35
13709;BME280;54933;51.908;7.730;2023-08-17T06:55:13;101282.25;;;24.01;88.30
13709;BME280;54933;51.908;7.730;2023-08-17T06:57:40;101283.03;;;24.02;88.23
13709;BME280;54933;51.908;7.730;2023-08-17T07:00:06;101285.53;;;24.03;88.28
13709;BME280;54933;51.908;7.730;2023-08-17T07:02:33;101283.88;;;24.02;88.34
13709;BME280;54933;51.908;7.730;2023-08-17T07:04:59;101274.66;;;24.03;88.31
13709;BME280;54933;51.908;7.730;2023-08-17T07:07:25;101279.06;;;24.04;88.36
13709;BME280;54933;51.908;7.730;2023-08-17T07:09:50;101282.59;;;24.05;88.38
13709;BME280;54933;51.908;7.730;2023-08-17T07:12:15;101281.56;;;24.06;88.30
13709;BME280;54933;51.908;7.730;2023-08-17T07:14:40;101283.44;;;24.05;88.39
13709;BME280;54933;51.908;7.730;2023-08-17T07:17:06;101283.44;;;24.05;88.42
13709;BME280;54933;51.908;7.730;2023-08-17T07:19:31;101291.56;;;24.05;88.33
13709;BME280;54933;51.908;7.730;2023-08-17T07:21:56;101295.13;;;24.06;88.19
13709;BME280;54933;51.908;7.730;2023-08-17T07:24:22;101301.91;;;23.90;88.58
13709;BME280;54933;51.908;7.730;2023-08-17T07:26:47;101314.75;;;23.83;89.04
13709;BME280;54933;51.908;7.730;2023-08-17T07:29:12;101313.50;;;23.79;89.61
13709;BME280;54933;51.908;7.730;2023-08-17T07:31:38;101315.38;;;23.79;89.64
13709;BME280;54933;51.908;7.730;2023-08-17T07:34:05;101316.22;;;23.79;90.15
13709;BME280;54933;51.908;7.730;2023-08-17T07:36:31;101309.94;;;23.79;90.02
13709;BME280;54933;51.908;7.730;2023-08-17T07:38:56;101314.34;;;23.80;90.39
13709;BME280;54933;51.908;7.730;2023-08-17T07:41:21;101314.13;;;23.81;90.17
13709;BME280;54933;51.908;7.730;2023-08-17T07:43:47;101310.56;;;23.81;90.08
13709;BME280;54933;51.908;7.730;2023-08-17T07:46:12;101316.84;;;23.81;90.00
13709;BME280;54933;51.908;7.730;2023-08-17T07:48:37;101311.19;;;23.83;90.07
13709;BME280;54933;51.908;7.730;2023-08-17T07:51:02;101315.09;;;23.87;89.99
13709;BME280;54933;51.908;7.730;2023-08-17T07:53:28;101320.16;;;23.83;89.82
13709;BME280;54933;51.908;7.730;2023-08-17T07:55:53;101330.41;;;23.81;89.95
13709;BME280;54933;51.908;7.730;2023-08-17T07:58:19;101329.56;;;23.81;89.91
13709;BME280;54933;51.908;7.730;2023-08-17T08:00:44;101329.34;;;23.82;90.03
13709;BME280;54933;51.908;7.730;2023-08-17T08:03:09;101329.34;;;23.82;89.95
13709;BME280;54933;51.908;7.730;2023-08-17T08:05:34;101334.53;;;23.84;89.90
13709;BME280;54933;51.908;7.730;2023-08-17T08:08:00;101334.31;;;23.85;89.88
13709;BME280;54933;51.908;7.730;2023-08-17T08:10:27;101333.28;;;23.86;89.87
13709;BME280;54933;51.908;7.730;2023-08-17T08:12:52;101332.22;;;23.87;89.34
13709;BME280;54933;51.908;7.730;2023-08-17T08:15:17;101341.22;;;23.88;89.73
13709;BME280;54933;51.908;7.730;2023-08-17T08:17:42;101340.97;;;23.89;89.53
13709;BME280;54933;51.908;7.730;2023-08-17T08:20:08;101338.28;;;23.89;89.36
13709;BME280;54933;51.908;7.730;2023-08-17T08:22:33;101326.34;;;23.90;89.17
13709;BME280;54933;51.908;7.730;2023-08-17T08:24:58;101336.41;;;23.90;89.39
13709;BME280;54933;51.908;7.730;2023-08-17T08:27:24;101328.66;;;23.87;89.41
13709;BME280;54933;51.908;7.730;2023-08-17T08:29:50;101332.44;;;23.86;89.48
13709;BME280;54933;51.908;7.730;2023-08-17T08:32:15;101328.91;;;23.85;89.63
13709;BME280;54933;51.908;7.730;2023-08-17T08:34:40;101325.38;;;23.85;89.61
13709;BME280;54933;51.908;7.730;2023-08-17T08:37:05;101326.19;;;23.85;89.81
13709;BME280;54933;51.908;7.730;2023-08-17T08:39:31;101325.94;;;23.87;89.66
13709;BME280;54933;51.908;7.730;2023-08-17T08:41:56;101321.38;;;23.87;89.73
13709;BME280;54933;51.908;7.730;2023-08-17T08:44:22;101314.91;;;23.88;89.63
13709;BME280;54933;51.908;7.730;2023-08-17T08:46:48;101320.34;;;23.88;89.60
13709;BME280;54933;51.908;7.730;2023-08-17T08:49:18;101315.72;;;23.89;89.60
13709;BME280;54933;51.908;7.730;2023-08-17T08:51:46;101323.63;;;23.90;89.62
13709;BME280;54933;51.908;7.730;2023-08-17T08:54:14;101309.03;;;23.91;89.62
13709;BME280;54933;51.908;7.730;2023-08-17T08:56:43;101316.09;;;23.92;89.47
13709;BME280;54933;51.908;7.730;2023-08-17T08:59:10;101305.03;;;23.94;89.35
13709;BME280;54933;51.908;7.730;2023-08-17T09:01:35;101307.50;;;23.95;89.40
13709;BME280;54933;51.908;7.730;2023-08-17T09:04:01;101307.50;;;23.95;89.31
13709;BME280;54933;51.908;7.730;2023-08-17T09:06:29;101308.16;;;23.97;89.34
13709;BME280;54933;51.908;7.730;2023-08-17T09:08:55;101311.91;;;23.96;89.15
13709;BME280;54933;51.908;7.730;2023-08-17T09:11:21;101316.91;;;23.99;89.11
13709;BME280;54933;51.908;7.730;2023-08-17T09:13:47;101323.25;;;23.87;89.33
13709;BME280;54933;51.908;7.730;2023-08-17T09:16:12;101323.91;;;23.82;89.72
13709;BME280;54933;51.908;7.730;2023-08-17T09:18:37;101329.56;;;23.81;89.85
13709;BME280;54933;51.908;7.730;2023-08-17T09:21:03;101322.50;;;23.80;90.11
13709;BME280;54933;51.908;7.730;2023-08-17T09:23:28;101312.31;;;23.75;90.24
13709;BME280;54933;51.908;7.730;2023-08-17T09:25:53;101313.34;;;23.74;90.47
13709;BME280;54933;51.908;7.730;2023-08-17T09:28:23;101311.69;;;23.73;90.28
13709;BME280;54933;51.908;7.730;2023-08-17T09:30:50;101307.91;;;23.74;90.61
13709;BME280;54933;51.908;7.730;2023-08-17T09:33:17;101309.59;;;23.75;90.81
13709;BME280;54933;51.908;7.730;2023-08-17T09:35:42;101310.41;;;23.76;90.49
13709;BME280;54933;51.908;7.730;2023-08-17T09:38:07;101304.34;;;23.74;90.48
13709;BME280;54933;51.908;7.730;2023-08-17T09:40:33;101306.88;;;23.75;90.63
13709;BME280;54933;51.908;7.730;2023-08-17T09:42:58;101296.59;;;23.77;90.60
13709;BME280;54933;51.908;7.730;2023-08-17T09:45:23;101300.38;;;23.76;90.57
13709;BME280;54933;51.908;7.730;2023-08-17T09:47:49;101299.94;;;23.79;90.30
13709;BME280;54933;51.908;7.730;2023-08-17T09:50:14;101294.50;;;23.79;90.55
13709;BME280;54933;51.908;7.730;2023-08-17T09:52:39;101284.50;;;23.80;90.45
13709;BME280;54933;51.908;7.730;2023-08-17T09:55:06;101289.47;;;23.83;90.28
13709;BME280;54933;51.908;7.730;2023-08-17T09:57:32;101284.88;;;23.83;90.22
13709;BME280;54933;51.908;7.730;2023-08-17T09:59:58;101288.19;;;23.85;90.28
13709;BME280;54933;51.908;7.730;2023-08-17T10:02:23;101290.09;;;23.85;89.98
13709;BME280;54933;51.908;7.730;2023-08-17T10:04:51;101302.38;;;23.87;90.27
13709;BME280;54933;51.908;7.730;2023-08-17T10:07:21;101304.03;;;23.88;89.96
13709;BME280;54933;51.908;7.730;2023-08-17T10:09:56;101306.75;;;23.88;89.67
13709;BME280;54933;51.908;7.730;2023-08-17T10:12:27;101300.25;;;23.89;89.77
13709;BME280;54933;51.908;7.730;2023-08-17T10:15:00;101294.00;;;23.89;89.76
13709;BME280;54933;51.908;7.730;2023-08-17T10:17:31;101292.75;;;23.91;89.77
13709;BME280;54933;51.908;7.730;2023-08-17T10:20:00;101301.47;;;23.93;89.57
13709;BME280;54933;51.908;7.730;2023-08-17T10:25:20;101296.03;;;23.93;89.42
13709;BME280;54933;51.908;7.730;2023-08-17T10:27:47;101297.72;;;23.94;89.24
13709;BME280;54933;51.908;7.730;2023-08-17T10:30:13;101292.91;;;23.96;89.27
13709;BME280;54933;51.908;7.730;2023-08-17T10:32:39;101295.41;;;23.98;88.64
13709;BME280;54933;51.908;7.730;2023-08-17T10:35:10;101298.94;;;23.98;89.09
13709;BME280;54933;51.908;7.730;2023-08-17T10:37:35;101293.28;;;24.00;88.92
13709;BME280;54933;51.908;7.730;2023-08-17T10:40:02;101289.53;;;24.01;88.59
13709;BME280;54933;51.908;7.730;2023-08-17T10:42:35;101302.81;;;23.84;88.86
13709;BME280;54933;51.908;7.730;2023-08-17T10:45:02;101296.38;;;23.79;89.33
13709;BME280;54933;51.908;7.730;2023-08-17T10:47:46;101303.72;;;23.78;89.76
13709;BME280;54933;51.908;7.730;2023-08-17T10:50:23;101289.31;;;23.78;90.04
13709;BME280;54933;51.908;7.730;2023-08-17T10:52:49;101301.81;;;23.79;90.16
13709;BME280;54933;51.908;7.730;2023-08-17T10:55:15;101296.16;;;23.80;90.15
13709;BME280;54933;51.908;7.730;2023-08-17T10:57:41;101300.56;;;23.81;90.29
13709;BME280;54933;51.908;7.730;2023-08-17T11:00:37;101304.91;;;23.82;90.29
13709;BME280;54933;51.908;7.730;2023-08-17T11:03:06;101308.47;;;23.83;90.56
13709;BME280;54933;51.908;7.730;2023-08-17T11:08:19;101310.78;;;23.79;90.30
13709;BME280;54933;51.908;7.730;2023-08-17T11:11:09;101310.63;;;23.74;90.19
13709;BME280;54933;51.908;7.730;2023-08-17T11:13:39;101307.91;;;23.74;90.20
13709;BME280;54933;51.908;7.730;2023-08-17T11:16:06;101310.63;;;23.74;90.33
13709;BME280;54933;51.908;7.730;2023-08-17T11:18:32;101304.97;;;23.76;90.24
13709;BME280;54933;51.908;7.730;2023-08-17T11:20:58;101311.84;;;23.78;90.19
13709;BME280;54933;51.908;7.730;2023-08-17T11:23:24;101310.78;;;23.79;90.12
13709;BME280;54933;51.908;7.730;2023-08-17T11:25:52;101310.34;;;23.82;89.93
13709;BME280;54933;51.908;7.730;2023-08-17T11:28:17;101310.34;;;23.82;89.70
13709;BME280;54933;51.908;7.730;2023-08-17T11:30:43;101306.81;;;23.82;89.84
13709;BME280;54933;51.908;7.730;2023-08-17T11:33:08;101309.31;;;23.83;89.77
13709;BME280;54933;51.908;7.730;2023-08-17T11:35:35;101313.69;;;23.84;89.91
13709;BME280;54933;51.908;7.730;2023-08-17T11:38:00;101309.09;;;23.85;89.85
13709;BME280;54933;51.908;7.730;2023-08-17T11:40:26;101315.31;;;23.85;89.97
13709;BME280;54933;51.908;7.730;2023-08-17T11:42:52;101308.84;;;23.86;89.80
13709;BME280;54933;51.908;7.730;2023-08-17T11:45:18;101305.31;;;23.86;89.68
13709;BME280;54933;51.908;7.730;2023-08-17T11:47:43;101309.91;;;23.85;89.71
13709;BME280;54933;51.908;7.730;2023-08-17T11:50:10;101300.72;;;23.86;89.76
13709;BME280;54933;51.908;7.730;2023-08-17T11:52:36;101297.84;;;23.81;89.88
13709;BME280;54933;51.908;7.730;2023-08-17T11:55:06;101288.91;;;23.74;90.31
13709;BME280;54933;51.908;7.730;2023-08-17T11:57:32;101300.84;;;23.73;90.38
13709;BME280;54933;51.908;7.730;2023-08-17T11:59:59;101304.56;;;23.72;90.49
13709;BME280;54933;51.908;7.730;2023-08-17T12:02:26;101298.13;;;23.73;90.60
13709;BME280;54933;51.908;7.730;2023-08-17T12:04:52;101294.56;;;23.73;90.90
13709;BME280;54933;51.908;7.730;2023-08-17T12:07:19;101306.31;;;23.67;90.67
13709;BME280;54933;51.908;7.730;2023-08-17T12:09:48;101306.72;;;23.70;90.48
13709;BME280;54933;51.908;7.730;2023-08-17T12:12:17;101304.41;;;23.67;90.30
13709;BME280;54933;51.908;7.730;2023-08-17T12:14:43;101310.47;;;23.69;90.41
13709;BME280;54933;51.908;7.730;2023-08-17T12:17:16;101318.59;;;23.69;90.34
13709;BME280;54933;51.908;7.730;2023-08-17T12:19:43;101317.56;;;23.70;90.31
13709;BME280;54933;51.908;7.730;2023-08-17T12:22:09;101313.78;;;23.71;90.30
13709;BME280;54933;51.908;7.730;2023-08-17T12:24:34;101312.72;;;23.72;90.54
13709;BME280;54933;51.908;7.730;2023-08-17T12:27:03;101313.34;;;23.74;90.43
13709;BME280;54933;51.908;7.730;2023-08-17T12:29:28;101316.78;;;23.63;89.91
13709;BME280;54933;51.908;7.730;2023-08-17T12:31:57;101318.59;;;23.69;89.81
13709;BME280;54933;51.908;7.730;2023-08-17T12:34:22;101305.19;;;23.74;89.82
13709;BME280;54933;51.908;7.730;2023-08-17T12:36:48;101311.84;;;23.78;89.90
13709;BME280;54933;51.908;7.730;2023-08-17T12:39:14;101308.69;;;23.81;90.18
13709;BME280;54933;51.908;7.730;2023-08-17T12:41:39;101303.88;;;23.83;89.90
13709;BME280;54933;51.908;7.730;2023-08-17T12:44:04;101305.53;;;23.84;89.84
13709;BME280;54933;51.908;7.730;2023-08-17T12:46:30;101299.88;;;23.86;89.71
13709;BME280;54933;51.908;7.730;2023-08-17T12:48:58;101305.06;;;23.87;89.71
13709;BME280;54933;51.908;7.730;2023-08-17T12:51:24;101306.75;;;23.88;89.72